This is the latest recevied weather packets stored in our database for station/object TA8CW-13. If no packets are shown the sender has not sent any weather packets the latest 10 day(s).
| Time | Temp. | Humidity | Pressure | Rain* | Wind** | Luminosity | Snow |
|---|---|---|---|---|---|---|---|
| 1778235108 | 21.11° C | 31% | 1018.1 hPa | 0 mm | - | 862 W/m² | - |
| 1778230152 | 20° C | 37% | 1019.2 hPa | 0 mm | - | 806 W/m² | - |
| 1778224238 | 18.33° C | 42% | 1019.4 hPa | 0 mm | - | 738 W/m² | - |
| 1778219349 | 16.67° C | 65% | 1019.4 hPa | 0 mm | - | 343 W/m² | - |
| 1778212253 | 10.56° C | 81% | 1019.5 hPa | 0 mm | - | 10 W/m² | - |
| 1778198819 | 9.44° C | 77% | 1019.4 hPa | 0 mm | - | 0 W/m² | - |
| 1778195458 | 10° C | 79% | 1019.2 hPa | 0 mm | - | 0 W/m² | - |
| 1778191823 | 10.56° C | 79% | 1019.1 hPa | 0 mm | - | 0 W/m² | - |
| 1778187537 | 11.67° C | 60% | 1018.5 hPa | 0 mm | - | 0 W/m² | - |
| 1778183561 | 12.78° C | 56% | 1018.2 hPa | 0 mm | - | 0 W/m² | - |
| 1778177274 | 14.44° C | 49% | 1018 hPa | 0 mm | - | 0 W/m² | - |
| 1778171239 | 16.67° C | 42% | 1015.8 hPa | 0 mm | - | 95 W/m² | - |
| 1778164911 | 18.33° C | 39% | 1015.7 hPa | 0 mm | - | 475 W/m² | - |
| 1778155279 | 18.89° C | 38% | 1016.6 hPa | 0 mm | - | 705 W/m² | - |
| 1778148227 | 17.78° C | 39% | 1017.3 hPa | 0 mm | - | 803 W/m² | - |
| 1778139191 | 15.56° C | 55% | 1018.2 hPa | 0 mm | - | 735 W/m² | - |
| 1778129170 | 10.56° C | 84% | 1019.4 hPa | 0 mm | - | 134 W/m² | - |
| 1778116671 | 7.22° C | 83% | 1018.3 hPa | 0 mm | - | 0 W/m² | - |
| 1778110146 | 7.78° C | 84% | 1017.9 hPa | 0 mm | - | 0 W/m² | - |
| 1778106530 | 7.78° C | 85% | 1017.9 hPa | 0 mm | - | 0 W/m² | - |
| 1778103387 | 8.33° C | 83% | 1017.8 hPa | 0 mm | - | 0 W/m² | - |
| 1778098921 | 8.89° C | 80% | 1017.4 hPa | 0 mm | - | 0 W/m² | - |
| 1778093736 | 10.56° C | 69% | 1016.4 hPa | 0 mm | - | 0 W/m² | - |
| 1778087178 | 12.78° C | 61% | 1015.2 hPa | 0 mm | - | 4 W/m² | - |
| 1778081427 | 14.44° C | 53% | 1014.3 hPa | 0 mm | - | 265 W/m² | - |
* Rain latest hour (hover to see other rain measurements)
** Current wind speed in m/s (hover to see current wind gust speed)